Felch, Michigan
Current Conditions -  °F | °C
As of 6:54 AM on Tuesday 21 Oct 2014 (Local Time) from KIMT Reporting Station
Overcast Overcast  
Wind Chill: 34°   Ceiling: 1500
Heat Index: 40°   Visibility: 10mi
Dew Point: 35°   Wind: 8mph
Humidity: 83%   Direction: 350°N
Pressure: 30.17"   Gusts: NA
Location:  46°N, 87.83°W
Report Text: KIMT 211154Z AUTO 35007KT 10SM OVC015 04/02 A3017 RMK AO2 SLP228 T00440017 10056 20044 53019
Loading
Personal Weather Stations






























Interactive Weather Map
Tropical Storm Tracking
New forecast layout! Learn more

10-Day Weather Forecast

Advertisements
Track Severe Weather on mobile